Terminal Aerodrome Forecast
Issued by NWS

Home | Current Version | Previous Version | Graphics & Text | Print | Product List | Glossary On
Versions: 1 2 3 4 5 6 7 8 9 10 11 12 13 14 15 16 17 18 19 20 21
000
FTUS43 KFGF 260520
TAFBJI
TAF
KBJI 260520Z 2606/2706 29017G25KT P6SM -RA OVC015
     FM260800 29017KT P6SM VCSH OVC025
     FM261000 29016KT P6SM BKN025
     FM261600 30018G26KT P6SM BKN035=

USA.gov is the U.S. government's official web portal to all federal, state and local government web resources and services.